createdAt,value
2023-11-20T00:01:35.114Z,41.65
2023-11-20T00:04:38.289Z,43.37
2023-11-20T00:07:42.009Z,43.28
2023-11-20T00:10:47.455Z,40.97
2023-11-20T00:13:49.883Z,38.22
2023-11-20T00:16:53.414Z,39.05
2023-11-20T00:19:56.804Z,39.27
2023-11-20T00:22:59.262Z,40.97
2023-11-20T00:26:01.750Z,39.38
2023-11-20T00:29:07.505Z,39.60
2023-11-20T00:32:09.918Z,40.00
2023-11-20T00:35:12.268Z,34.27
2023-11-20T00:38:14.570Z,41.08
2023-11-20T00:41:19.468Z,36.10
2023-11-20T00:44:21.815Z,39.47
2023-11-20T00:47:25.695Z,42.45
2023-11-20T00:50:28.308Z,38.33
2023-11-20T00:53:30.645Z,41.45
2023-11-20T00:56:33.270Z,40.33
2023-11-20T00:59:35.869Z,41.30
2023-11-20T01:02:39.142Z,42.97
2023-11-20T01:05:43.535Z,42.07
2023-11-20T01:08:45.976Z,40.85
2023-11-20T01:11:48.378Z,42.25
2023-11-20T01:14:50.858Z,40.90
2023-11-20T01:17:53.410Z,39.10
2023-11-20T01:20:55.762Z,42.37
2023-11-20T01:23:58.093Z,40.95
2023-11-20T01:27:00.522Z,43.75
2023-11-20T01:30:03.102Z,43.75
2023-11-20T01:33:05.525Z,44.90
2023-11-20T01:36:08.318Z,39.67
2023-11-20T01:39:12.409Z,42.22
2023-11-20T01:42:14.991Z,46.85
2023-11-20T01:45:17.479Z,39.28
2023-11-20T01:48:21.074Z,43.20
2023-11-20T01:51:25.871Z,39.93
2023-11-20T01:54:29.775Z,41.83
2023-11-20T01:57:32.206Z,44.30
2023-11-20T02:00:37.908Z,40.85
2023-11-20T02:03:40.481Z,43.03
2023-11-20T02:06:43.667Z,43.73
2023-11-20T02:09:47.159Z,43.75
2023-11-20T02:12:50.830Z,46.25
2023-11-20T02:15:53.524Z,48.47
2023-11-20T02:18:55.955Z,53.95
2023-11-20T02:21:58.775Z,48.47
2023-11-20T02:25:01.329Z,56.05
2023-11-20T02:28:28.035Z,54.20
2023-11-20T02:31:34.441Z,49.03
2023-11-20T02:34:39.226Z,52.50
2023-11-20T02:37:42.101Z,51.70
2023-11-20T02:40:49.421Z,51.13
2023-11-20T02:43:52.881Z,57.90
2023-11-20T02:46:55.291Z,52.15
2023-11-20T02:49:57.837Z,53.10
2023-11-20T02:53:00.225Z,63.67
2023-11-20T02:56:03.473Z,103.55
2023-11-20T02:59:05.972Z,70.90
2023-11-20T03:02:08.428Z,67.82
2023-11-20T03:05:10.855Z,69.25
2023-11-20T03:08:13.562Z,91.73
2023-11-20T03:11:15.927Z,84.20
2023-11-20T03:14:21.531Z,88.93
2023-11-20T03:17:24.500Z,87.15
2023-11-20T03:20:27.171Z,66.43
2023-11-20T03:23:31.991Z,77.60
2023-11-20T03:26:34.452Z,70.30
2023-11-20T03:29:37.400Z,70.63
2023-11-20T03:32:39.959Z,54.97
2023-11-20T03:35:42.355Z,52.10
2023-11-20T03:38:45.738Z,56.57
2023-11-20T03:41:48.585Z,53.90
2023-11-20T03:44:52.166Z,55.60
2023-11-20T03:47:54.507Z,52.30
2023-11-20T03:50:56.872Z,53.45
2023-11-20T03:53:59.272Z,56.67
2023-11-20T03:57:01.579Z,57.20
2023-11-20T04:00:06.047Z,51.35
2023-11-20T04:03:08.492Z,51.88
2023-11-20T04:06:10.907Z,48.13
2023-11-20T04:09:15.821Z,60.90
2023-11-20T04:12:19.471Z,55.83
2023-11-20T04:15:23.719Z,53.08
2023-11-20T04:18:26.087Z,63.08
2023-11-20T04:21:31.222Z,67.63
2023-11-20T04:24:34.481Z,67.00
2023-11-20T04:27:37.102Z,67.88
2023-11-20T04:30:40.076Z,64.97
2023-11-20T04:33:49.759Z,66.78
2023-11-20T04:36:53.274Z,55.33
2023-11-20T04:39:55.921Z,66.67
2023-11-20T04:42:58.335Z,59.60
2023-11-20T04:46:00.942Z,64.45
2023-11-20T04:49:03.329Z,58.25
2023-11-20T04:52:06.074Z,55.58
2023-11-20T04:55:09.817Z,58.30
2023-11-20T04:58:12.260Z,56.08
2023-11-20T05:01:17.735Z,53.90
2023-11-20T05:04:24.985Z,54.10
2023-11-20T05:07:27.537Z,59.83
2023-11-20T05:10:29.875Z,58.07
2023-11-20T05:13:32.266Z,62.55
2023-11-20T05:16:37.284Z,58.30
2023-11-20T05:19:39.615Z,63.25
2023-11-20T05:22:42.002Z,59.70
2023-11-20T05:25:44.438Z,60.10
2023-11-20T05:28:46.883Z,61.22
2023-11-20T05:31:51.410Z,67.97
2023-11-20T05:34:53.748Z,60.90
2023-11-20T05:37:56.087Z,65.28
2023-11-20T05:40:58.936Z,85.30
2023-11-20T05:44:01.374Z,64.72
2023-11-20T05:47:10.136Z,81.80
2023-11-20T05:50:12.516Z,62.67
2023-11-20T05:53:14.868Z,71.28
2023-11-20T05:56:17.195Z,85.33
2023-11-20T05:59:19.692Z,70.57
2023-11-20T06:02:29.319Z,71.15
2023-11-20T06:05:32.092Z,79.97
2023-11-20T06:08:38.372Z,68.47
2023-11-20T06:11:43.810Z,129.70
2023-11-20T06:14:52.186Z,101.13
2023-11-20T06:17:54.852Z,97.50
2023-11-20T06:20:57.226Z,125.65
2023-11-20T06:23:59.647Z,106.18
2023-11-20T06:27:01.982Z,104.00
2023-11-20T06:30:07.674Z,97.53
2023-11-20T06:33:10.048Z,105.00
2023-11-20T06:36:13.042Z,118.65
2023-11-20T06:39:15.361Z,122.30
2023-11-20T06:42:17.754Z,94.47
2023-11-20T06:45:22.540Z,79.35
2023-11-20T06:48:24.998Z,94.07
2023-11-20T06:51:31.197Z,77.10
2023-11-20T06:54:34.702Z,59.60
2023-11-20T06:57:37.104Z,57.53
2023-11-20T07:00:39.518Z,56.42
2023-11-20T07:03:45.861Z,51.88
2023-11-20T07:06:50.695Z,47.40
2023-11-20T07:09:53.485Z,46.20
2023-11-20T07:12:57.962Z,45.53
2023-11-20T07:16:00.975Z,44.38
2023-11-20T07:19:03.658Z,41.85
2023-11-20T07:22:09.411Z,42.55
2023-11-20T07:25:12.593Z,41.50
2023-11-20T07:28:18.315Z,38.10
2023-11-20T07:31:32.666Z,39.92
2023-11-20T07:34:37.476Z,41.80
2023-11-20T07:37:41.147Z,39.30
2023-11-20T07:40:55.748Z,38.42
2023-11-20T07:44:01.982Z,39.00
2023-11-20T07:47:11.804Z,35.55
2023-11-20T07:50:15.952Z,39.45
2023-11-20T07:53:19.321Z,39.83
2023-11-20T07:56:21.703Z,41.85
2023-11-20T07:59:24.696Z,41.20
2023-11-20T08:02:28.066Z,39.42
2023-11-20T08:05:40.997Z,39.97
2023-11-20T08:08:47.504Z,45.00
2023-11-20T08:11:53.941Z,35.03
2023-11-20T08:14:56.356Z,35.03
2023-11-20T08:17:58.699Z,31.77
2023-11-20T08:21:01.112Z,31.83
2023-11-20T08:24:03.588Z,26.70
2023-11-20T08:27:06.915Z,30.05
2023-11-20T08:30:09.815Z,31.57
2023-11-20T08:33:12.351Z,41.42
2023-11-20T08:36:15.273Z,40.08
2023-11-20T08:39:26.344Z,40.47
2023-11-20T08:42:34.775Z,33.78
2023-11-20T08:45:39.830Z,26.30
2023-11-20T08:48:42.178Z,24.67
2023-11-20T08:51:49.091Z,28.10
2023-11-20T08:54:58.384Z,35.72
2023-11-20T08:58:00.801Z,28.58
2023-11-20T09:01:03.421Z,19.00
2023-11-20T09:04:11.597Z,22.38
2023-11-20T09:07:14.500Z,22.38
2023-11-20T09:10:24.407Z,35.08
2023-11-20T09:13:26.941Z,39.17
2023-11-20T09:16:29.509Z,38.30
2023-11-20T09:19:34.012Z,42.75
2023-11-20T09:22:36.328Z,37.15
2023-11-20T09:25:40.309Z,40.17
2023-11-20T09:28:43.591Z,31.95
2023-11-20T09:31:49.062Z,29.67
2023-11-20T09:34:51.624Z,20.33
2023-11-20T09:37:54.942Z,19.42
2023-11-20T09:40:59.969Z,33.83
2023-11-20T09:44:05.004Z,26.58
2023-11-20T09:47:08.492Z,30.10
2023-11-20T09:50:12.245Z,41.92
2023-11-20T09:53:20.565Z,21.65
2023-11-20T09:56:23.072Z,37.05
2023-11-20T09:59:26.610Z,34.03
2023-11-20T10:02:30.162Z,38.83
2023-11-20T10:05:37.780Z,37.42
2023-11-20T10:08:47.751Z,37.70
2023-11-20T10:11:54.315Z,36.33
2023-11-20T10:15:04.589Z,34.78
2023-11-20T10:18:07.353Z,34.20
2023-11-20T10:21:09.814Z,32.65
2023-11-20T10:24:18.695Z,33.38
2023-11-20T10:27:34.361Z,21.38
2023-11-20T10:30:37.215Z,25.45
2023-11-20T10:33:39.818Z,27.27
2023-11-20T10:36:42.218Z,15.80
2023-11-20T10:39:45.163Z,13.50
2023-11-20T10:42:47.935Z,16.77
2023-11-20T10:45:52.997Z,16.13
2023-11-20T10:49:30.084Z,14.83
2023-11-20T10:52:32.749Z,18.63
2023-11-20T10:55:51.635Z,19.20
2023-11-20T10:58:55.901Z,9.93
2023-11-20T11:01:59.180Z,12.35
2023-11-20T11:05:07.959Z,8.50
2023-11-20T11:08:15.290Z,8.98
2023-11-20T11:11:18.324Z,8.45
2023-11-20T11:14:20.665Z,6.78
2023-11-20T11:17:26.042Z,4.55
2023-11-20T11:21:12.864Z,4.10
2023-11-20T11:24:17.076Z,5.13
2023-11-20T11:27:28.689Z,3.83
2023-11-20T11:30:38.046Z,5.10
2023-11-20T11:34:02.155Z,4.63
2023-11-20T11:37:11.112Z,5.60
2023-11-20T11:40:24.916Z,4.80
2023-11-20T11:43:39.893Z,5.80
2023-11-20T11:46:56.470Z,6.15
2023-11-20T11:49:59.168Z,3.20
2023-11-20T11:53:01.635Z,6.13
2023-11-20T11:56:11.154Z,4.28
2023-11-20T11:59:36.855Z,2.58
2023-11-20T12:02:51.338Z,2.35
2023-11-20T12:05:58.227Z,4.20
2023-11-20T12:09:06.032Z,6.90
2023-11-20T12:12:11.417Z,3.33
2023-11-20T12:15:51.988Z,9.27
2023-11-20T12:18:57.569Z,4.43
2023-11-20T12:22:00.967Z,3.90
2023-11-20T12:25:03.757Z,4.33
2023-11-20T12:28:09.221Z,9.30
2023-11-20T12:31:13.954Z,26.38
2023-11-20T12:34:18.256Z,6.00
2023-11-20T12:37:22.031Z,4.28
2023-11-20T12:40:25.923Z,3.57
2023-11-20T12:43:29.994Z,3.30
2023-11-20T12:46:34.989Z,8.00
2023-11-20T12:49:37.556Z,5.05
2023-11-20T12:52:41.644Z,7.40
2023-11-20T12:55:45.455Z,7.47
2023-11-20T12:58:51.035Z,6.03
2023-11-20T13:01:53.684Z,9.55
2023-11-20T13:04:56.265Z,4.57
2023-11-20T13:08:03.985Z,4.80
2023-11-20T13:11:08.844Z,4.27
2023-11-20T13:14:11.156Z,6.93
2023-11-20T13:17:13.501Z,5.93
2023-11-20T13:20:45.749Z,2.90
2023-11-20T13:24:03.939Z,2.50
2023-11-20T13:27:08.240Z,3.27
2023-11-20T13:30:21.577Z,5.85
2023-11-20T13:33:25.901Z,4.30
2023-11-20T13:36:29.418Z,3.88
2023-11-20T13:39:33.074Z,3.20
2023-11-20T13:42:39.968Z,3.23
2023-11-20T13:45:43.808Z,3.97
2023-11-20T13:48:48.557Z,6.75
2023-11-20T13:51:52.558Z,5.57
2023-11-20T13:54:57.369Z,7.15
2023-11-20T13:57:59.718Z,3.53
2023-11-20T14:01:03.298Z,4.85
2023-11-20T14:04:11.003Z,2.88
2023-11-20T14:07:14.013Z,3.78
2023-11-20T14:10:16.915Z,3.47
2023-11-20T14:13:20.646Z,6.00
2023-11-20T14:16:23.244Z,8.85
2023-11-20T14:19:28.758Z,5.07
2023-11-20T14:22:31.463Z,7.97
2023-11-20T14:25:34.416Z,4.88
2023-11-20T14:28:37.067Z,6.17
2023-11-20T14:31:40.667Z,36.97
2023-11-20T14:34:48.797Z,8.02
2023-11-20T14:37:52.661Z,6.93
2023-11-20T14:40:58.541Z,10.52
2023-11-20T14:44:00.890Z,9.93
2023-11-20T14:47:03.386Z,3.95
2023-11-20T14:50:12.568Z,6.28
2023-11-20T14:53:16.048Z,5.53
2023-11-20T14:56:19.134Z,5.95
2023-11-20T14:59:21.514Z,11.80
2023-11-20T15:02:23.913Z,7.55
2023-11-20T15:05:27.446Z,6.10
2023-11-20T15:08:29.839Z,8.10
2023-11-20T15:11:32.302Z,4.20
2023-11-20T15:14:34.751Z,5.30
2023-11-20T15:17:37.930Z,6.72
2023-11-20T15:20:40.209Z,7.00
2023-11-20T15:23:42.475Z,7.82
2023-11-20T15:26:47.534Z,12.00
2023-11-20T15:29:49.942Z,10.77
2023-11-20T15:32:52.233Z,10.48
2023-11-20T15:35:54.565Z,7.43
2023-11-20T15:38:57.206Z,6.35
2023-11-20T15:42:00.836Z,7.22
2023-11-20T15:45:05.440Z,7.00
2023-11-20T15:48:07.949Z,7.30
2023-11-20T15:51:10.301Z,6.60
2023-11-20T15:54:17.889Z,9.85
2023-11-20T15:57:23.633Z,17.17
2023-11-20T16:00:27.093Z,27.80
2023-11-20T16:03:30.021Z,26.63
2023-11-20T16:06:32.620Z,33.35
2023-11-20T16:09:38.311Z,32.10
2023-11-20T16:12:41.129Z,15.13
2023-11-20T16:15:47.154Z,16.77
2023-11-20T16:18:49.700Z,10.50
2023-11-20T16:21:52.012Z,13.65
2023-11-20T16:24:54.457Z,7.45
2023-11-20T16:27:56.872Z,7.57
2023-11-20T16:30:59.242Z,12.20
2023-11-20T16:34:03.208Z,7.53
2023-11-20T16:37:16.859Z,7.80
2023-11-20T16:40:19.311Z,7.57
2023-11-20T16:43:21.701Z,7.40
2023-11-20T16:46:26.253Z,8.80
2023-11-20T16:49:30.146Z,23.17
2023-11-20T16:52:32.947Z,118.78
2023-11-20T16:55:35.295Z,72.68
2023-11-20T16:58:38.261Z,104.78
2023-11-20T17:01:40.810Z,65.30
2023-11-20T17:04:43.309Z,32.72
2023-11-20T17:07:45.857Z,18.20
2023-11-20T17:10:48.227Z,16.25
2023-11-20T17:13:51.137Z,15.18
2023-11-20T17:16:54.173Z,11.50
2023-11-20T17:19:57.535Z,14.45
2023-11-20T17:23:01.011Z,13.63
2023-11-20T17:26:03.569Z,10.07
2023-11-20T17:29:06.094Z,7.85
2023-11-20T17:32:11.300Z,10.97
2023-11-20T17:35:17.086Z,6.53
2023-11-20T17:38:19.393Z,25.23
2023-11-20T17:41:22.263Z,33.50
2023-11-20T17:44:24.578Z,17.77
2023-11-20T17:47:29.736Z,16.90
2023-11-20T17:50:32.464Z,18.63
2023-11-20T17:53:35.721Z,15.60
2023-11-20T17:56:42.847Z,9.43
2023-11-20T17:59:46.216Z,14.07
2023-11-20T18:02:48.930Z,12.70
2023-11-20T18:05:51.565Z,8.75
2023-11-20T18:08:57.325Z,8.80
2023-11-20T18:11:59.618Z,7.53
2023-11-20T18:15:01.948Z,8.10
2023-11-20T18:18:06.081Z,7.13
2023-11-20T18:21:08.522Z,8.35
2023-11-20T18:24:14.895Z,7.88
2023-11-20T18:27:17.446Z,5.22
2023-11-20T18:30:19.848Z,8.25
2023-11-20T18:33:23.349Z,7.03
2023-11-20T18:36:25.613Z,9.73
2023-11-20T18:39:27.926Z,8.68
2023-11-20T18:42:30.302Z,7.03
2023-11-20T18:45:32.662Z,8.35
2023-11-20T18:48:34.991Z,6.97
2023-11-20T18:51:37.308Z,6.07
2023-11-20T18:54:42.246Z,7.72
2023-11-20T18:57:51.309Z,8.50
2023-11-20T19:00:53.710Z,10.38
2023-11-20T19:03:56.078Z,9.53
2023-11-20T19:06:58.788Z,9.45
2023-11-20T19:10:01.377Z,8.90
2023-11-20T19:13:03.740Z,7.45
2023-11-20T19:16:08.914Z,10.50
2023-11-20T19:19:11.625Z,7.97
2023-11-20T19:22:14.092Z,6.32
2023-11-20T19:25:16.497Z,8.35
2023-11-20T19:28:21.203Z,9.13
2023-11-20T19:31:23.602Z,8.38
2023-11-20T19:34:26.401Z,11.03
2023-11-20T19:37:28.775Z,9.43
2023-11-20T19:40:31.197Z,9.75
2023-11-20T19:43:33.498Z,12.85
2023-11-20T19:46:38.994Z,13.25
2023-11-20T19:49:42.199Z,8.70
2023-11-20T19:52:46.232Z,11.05
2023-11-20T19:55:49.629Z,13.10
2023-11-20T19:58:54.406Z,15.32
2023-11-20T20:02:00.679Z,14.93
2023-11-20T20:05:04.338Z,16.63
2023-11-20T20:08:06.831Z,14.30
2023-11-20T20:11:09.171Z,16.15
2023-11-20T20:14:11.546Z,12.55
2023-11-20T20:17:14.393Z,13.35
2023-11-20T20:20:18.869Z,9.80
2023-11-20T20:23:21.580Z,10.57
2023-11-20T20:26:31.763Z,14.30
2023-11-20T20:29:34.098Z,9.00
2023-11-20T20:32:37.008Z,11.35
2023-11-20T20:35:39.352Z,16.20
2023-11-20T20:38:45.318Z,14.10
2023-11-20T20:41:47.576Z,11.82
2023-11-20T20:44:52.062Z,13.05
2023-11-20T20:47:54.921Z,14.10
2023-11-20T20:50:57.283Z,12.77
2023-11-20T20:54:00.339Z,18.15
2023-11-20T20:57:02.674Z,17.85
2023-11-20T21:00:14.751Z,15.55
2023-11-20T21:03:18.821Z,19.30
2023-11-20T21:06:27.841Z,18.07
2023-11-20T21:09:30.155Z,14.98
2023-11-20T21:12:32.482Z,22.70
2023-11-20T21:15:35.460Z,17.98
2023-11-20T21:18:37.771Z,18.55
2023-11-20T21:21:40.122Z,18.40
2023-11-20T21:24:42.470Z,18.58
2023-11-20T21:27:45.966Z,15.25
2023-11-20T21:30:48.319Z,14.80
2023-11-20T21:33:50.607Z,16.35
2023-11-20T21:36:52.941Z,15.70
2023-11-20T21:39:55.242Z,15.05
2023-11-20T21:42:57.547Z,18.15
2023-11-20T21:46:00.323Z,14.52
2023-11-20T21:49:02.684Z,16.08
2023-11-20T21:52:05.185Z,14.77
2023-11-20T21:55:07.875Z,16.35
2023-11-20T21:58:10.670Z,13.73
2023-11-20T22:01:13.584Z,14.50
2023-11-20T22:04:16.365Z,15.05
2023-11-20T22:07:19.034Z,15.90
2023-11-20T22:10:22.684Z,16.38
2023-11-20T22:13:25.255Z,16.50
2023-11-20T22:16:27.674Z,18.30
2023-11-20T22:19:30.089Z,17.20
2023-11-20T22:22:36.009Z,17.10
2023-11-20T22:25:38.357Z,14.75
2023-11-20T22:28:40.774Z,16.58
2023-11-20T22:31:43.200Z,15.13
2023-11-20T22:34:50.003Z,12.45
2023-11-20T22:38:00.549Z,12.77
2023-11-20T22:41:06.172Z,13.70
2023-11-20T22:44:10.350Z,18.67
2023-11-20T22:47:13.423Z,21.35
2023-11-20T22:50:17.729Z,13.95
2023-11-20T22:53:20.091Z,13.10
2023-11-20T22:56:22.387Z,13.32
2023-11-20T22:59:25.776Z,13.27
2023-11-20T23:02:29.401Z,15.40
2023-11-20T23:05:31.852Z,11.57
2023-11-20T23:08:37.044Z,13.73
2023-11-20T23:11:43.973Z,13.02
2023-11-20T23:14:46.284Z,11.43
2023-11-20T23:17:48.744Z,13.85
2023-11-20T23:20:51.053Z,15.02
2023-11-20T23:23:53.553Z,12.13
2023-11-20T23:26:56.645Z,14.38
2023-11-20T23:29:58.941Z,10.68
2023-11-20T23:33:01.418Z,16.88
2023-11-20T23:36:04.089Z,16.17
2023-11-20T23:39:10.903Z,20.43
2023-11-20T23:42:16.217Z,15.48
2023-11-20T23:45:19.119Z,14.63
2023-11-20T23:48:21.871Z,15.50
2023-11-20T23:51:24.719Z,17.38
2023-11-20T23:54:27.102Z,15.97
2023-11-20T23:57:29.458Z,15.60
